createdAt,value
2018-11-28T14:09:37.529Z,1002.97
2018-11-28T14:10:41.687Z,1001.51
2018-11-28T14:11:47.866Z,1000.89
2018-11-28T14:12:54.039Z,1001.04
2018-11-28T14:14:00.201Z,1001.49
2018-11-28T14:15:06.398Z,1001.97
2018-11-28T14:16:13.047Z,1002.29
2018-11-28T14:17:18.718Z,1002.46
2018-11-28T14:18:24.887Z,1002.63
2018-11-28T14:19:31.039Z,1002.83
2018-11-28T14:20:37.212Z,1002.89
2018-11-28T14:21:43.874Z,1002.98
2018-11-28T14:22:49.536Z,1003.02
2018-11-28T14:23:55.703Z,1003.08
2018-11-28T14:25:02.350Z,1003.08
2018-11-28T14:26:08.605Z,1003.07
2018-11-28T14:27:14.775Z,1003.11
2018-11-28T14:28:20.341Z,1003.13
2018-11-28T14:29:26.610Z,1003.12
2018-11-28T14:30:32.654Z,1003.15
2018-11-28T14:31:38.810Z,1003.12
2018-11-28T14:32:44.979Z,1003.22
2018-11-28T14:33:51.132Z,1003.19
2018-11-28T14:34:57.285Z,1003.21
2018-11-28T14:36:03.438Z,1003.25
2018-11-28T14:37:09.596Z,1003.29
2018-11-28T14:38:15.748Z,1003.32
2018-11-28T14:39:21.907Z,1003.29
2018-11-28T14:40:28.059Z,1003.34
2018-11-28T14:41:34.705Z,1003.38
2018-11-28T14:42:40.372Z,1003.41
2018-11-28T14:43:46.519Z,1003.40
2018-11-28T14:44:53.175Z,1003.42
2018-11-28T14:45:58.821Z,1003.44
2018-11-28T14:47:04.967Z,1003.46
2018-11-28T14:48:11.121Z,1003.41
2018-11-28T14:49:17.284Z,1003.46
2018-11-28T14:50:23.914Z,1003.49
2018-11-28T14:51:29.573Z,1003.47
2018-11-28T14:52:35.722Z,1003.49
2018-11-28T14:53:41.863Z,1003.46
2018-11-28T14:54:48.508Z,1003.47
2018-11-28T14:55:55.152Z,1003.42
2018-11-28T14:57:01.809Z,1003.49
2018-11-28T14:58:06.582Z,1003.51
2018-11-28T14:59:12.712Z,1003.54
2018-11-28T15:00:18.736Z,1003.56
2018-11-28T15:01:24.900Z,1003.58
2018-11-28T15:02:31.065Z,1003.59
2018-11-28T15:03:37.775Z,1003.61
2018-11-28T15:04:43.797Z,1003.65
2018-11-28T15:05:49.934Z,1003.71
2018-11-28T15:06:55.585Z,1003.72
2018-11-28T15:08:01.734Z,1003.72
2018-11-28T15:09:07.860Z,1003.72
2018-11-28T15:10:14.282Z,1003.77
2018-11-28T15:11:20.125Z,1003.76
2018-11-28T15:12:26.259Z,1003.76
2018-11-28T15:13:32.600Z,1003.79
2018-11-28T15:14:38.540Z,1003.79
2018-11-28T15:15:44.675Z,1003.84
2018-11-28T15:16:50.802Z,1003.79
2018-11-28T15:17:56.947Z,1003.82
2018-11-28T15:19:03.057Z,1003.86
2018-11-28T15:20:09.192Z,1003.85
2018-11-28T15:21:15.324Z,1003.85
2018-11-28T15:22:21.455Z,1003.83
2018-11-28T15:23:27.585Z,1003.82
2018-11-28T15:24:34.210Z,1003.77
2018-11-28T15:25:39.837Z,1003.79
2018-11-28T15:26:45.955Z,1003.73
2018-11-28T15:27:52.079Z,1003.75
2018-11-28T15:28:58.210Z,1003.73
2018-11-28T15:30:04.324Z,1003.72
2018-11-28T15:31:10.437Z,1003.73
2018-11-28T15:32:16.561Z,1003.74
2018-11-28T15:33:22.703Z,1003.75
2018-11-28T15:34:28.820Z,1003.78
2018-11-28T15:35:34.922Z,1003.81
2018-11-28T15:36:41.040Z,1003.80
2018-11-28T15:37:47.165Z,1003.83
2018-11-28T15:38:53.281Z,1003.80
2018-11-28T15:39:59.391Z,1003.81
2018-11-28T15:41:05.997Z,1003.80
2018-11-28T15:42:11.619Z,1003.82
2018-11-28T15:43:17.739Z,1003.75
2018-11-28T15:44:24.344Z,1003.73
2018-11-28T15:45:29.959Z,1003.71
2018-11-28T15:46:36.084Z,1003.66
2018-11-28T15:47:42.194Z,1003.66
2018-11-28T15:48:48.346Z,1003.59
2018-11-28T15:49:54.922Z,1003.51
2018-11-28T15:51:00.527Z,1003.48
2018-11-28T15:52:06.647Z,1003.47
2018-11-28T15:53:12.758Z,1003.51
2018-11-28T15:54:18.873Z,1003.50
2018-11-28T15:55:24.974Z,1003.50
2018-11-28T15:56:31.074Z,1003.50
2018-11-28T15:57:37.199Z,1003.47
2018-11-28T15:58:43.314Z,1003.46
2018-11-28T15:59:49.921Z,1003.42
2018-11-28T16:00:56.034Z,1003.37
2018-11-28T16:02:01.641Z,1003.40
2018-11-28T16:03:08.262Z,1003.36
2018-11-28T16:04:13.884Z,1003.36
2018-11-28T16:05:19.977Z,1003.31
2018-11-28T16:06:26.088Z,1003.29
2018-11-28T16:07:32.215Z,1003.34
2018-11-28T16:08:38.803Z,1003.35
2018-11-28T16:09:44.437Z,1003.36
2018-11-28T16:10:50.533Z,1003.34
2018-11-28T16:11:56.653Z,1003.34
2018-11-28T16:13:02.812Z,1003.30
2018-11-28T16:14:08.881Z,1003.30
2018-11-28T16:15:15.496Z,1003.31
2018-11-28T16:16:21.101Z,1003.33
2018-11-28T16:17:27.221Z,1003.32
2018-11-28T16:18:33.326Z,1003.36
2018-11-28T16:19:39.435Z,1003.34
2018-11-28T16:20:45.556Z,1003.34
2018-11-28T16:21:52.152Z,1003.32
2018-11-28T16:23:04.361Z,1003.35
2018-11-28T16:24:04.893Z,1003.35
2018-11-28T16:25:10.010Z,1003.38
2018-11-28T16:26:16.123Z,1003.41
2018-11-28T16:27:22.232Z,1003.44
2018-11-28T16:28:28.336Z,1003.43
2018-11-28T16:29:34.582Z,1003.43
2018-11-28T16:30:40.563Z,1003.41
2018-11-28T16:31:46.681Z,1003.42
2018-11-28T16:32:52.784Z,1003.40
2018-11-28T16:33:58.890Z,1003.40
2018-11-28T16:35:05.016Z,1003.47
2018-11-28T16:36:11.123Z,1003.45
2018-11-28T16:37:17.273Z,1003.44
2018-11-28T16:38:23.344Z,1003.47
2018-11-28T16:39:29.447Z,1003.47
2018-11-28T16:40:36.103Z,1003.44
2018-11-28T16:41:41.675Z,1003.47
2018-11-28T16:42:47.780Z,1003.38
2018-11-28T16:43:54.394Z,1003.43
2018-11-28T16:45:00.576Z,1003.40
2018-11-28T16:46:06.131Z,1003.37
2018-11-28T16:47:12.235Z,1003.42
2018-11-28T16:48:18.348Z,1003.34
2018-11-28T16:49:24.457Z,1003.35
2018-11-28T16:50:31.049Z,1003.36
2018-11-28T16:51:36.679Z,1003.35
2018-11-28T16:52:42.789Z,1003.36
2018-11-28T16:53:48.885Z,1003.36
2018-11-28T16:54:55.022Z,1003.35
2018-11-28T16:56:01.124Z,1003.33
2018-11-28T16:57:07.224Z,1003.32
2018-11-28T16:58:13.336Z,1003.36
2018-11-28T16:59:19.439Z,1003.34
2018-11-28T17:00:27.045Z,1003.38
2018-11-28T17:01:31.667Z,1003.42
2018-11-28T17:02:37.788Z,1003.40
2018-11-28T17:03:43.890Z,1003.46
2018-11-28T17:04:49.991Z,1003.43
2018-11-28T17:05:56.106Z,1003.45
2018-11-28T17:07:02.220Z,1003.47
2018-11-28T17:08:08.499Z,1003.49
2018-11-28T17:09:14.911Z,1003.55
2018-11-28T17:10:20.526Z,1003.52
2018-11-28T17:11:27.150Z,1003.57
2018-11-28T17:12:32.769Z,1003.56
2018-11-28T17:13:38.857Z,1003.60
2018-11-28T17:14:44.952Z,1003.64
2018-11-28T17:15:51.054Z,1003.64
2018-11-28T17:16:57.172Z,1003.66
2018-11-28T17:18:03.767Z,1003.65
2018-11-28T17:19:09.364Z,1003.68
2018-11-28T17:20:15.503Z,1003.66
2018-11-28T17:21:21.583Z,1003.65
2018-11-28T17:22:27.701Z,1003.63
2018-11-28T17:23:34.157Z,1003.63
2018-11-28T17:24:40.369Z,1003.62
2018-11-28T17:25:45.981Z,1003.60
2018-11-28T17:26:52.092Z,1003.64
2018-11-28T17:27:58.188Z,1003.61
2018-11-28T17:29:04.802Z,1003.66
2018-11-28T17:30:10.391Z,1003.64
2018-11-28T17:31:16.702Z,1003.69
2018-11-28T17:32:22.597Z,1003.70
2018-11-28T17:33:28.692Z,1003.71
2018-11-28T17:34:34.801Z,1003.72
2018-11-28T17:35:40.903Z,1003.71
2018-11-28T17:36:47.008Z,1003.65
2018-11-28T17:37:53.113Z,1003.66
2018-11-28T17:38:59.714Z,1003.62
2018-11-28T17:40:05.327Z,1003.65
2018-11-28T17:41:11.425Z,1003.63
2018-11-28T17:42:17.539Z,1003.64
2018-11-28T17:43:23.628Z,1003.69
2018-11-28T17:44:29.739Z,1003.66
2018-11-28T17:45:36.328Z,1003.72
2018-11-28T17:46:42.444Z,1003.70
2018-11-28T17:47:48.054Z,1003.69
2018-11-28T17:48:55.156Z,1003.69
2018-11-28T17:50:00.271Z,1003.68
2018-11-28T17:51:06.375Z,1003.64
2018-11-28T17:52:12.588Z,1003.71
2018-11-28T17:53:18.584Z,1003.71
2018-11-28T17:54:24.691Z,1003.71
2018-11-28T17:55:30.845Z,1003.75
2018-11-28T17:56:36.908Z,1003.73
2018-11-28T17:57:43.515Z,1003.74
2018-11-28T17:58:49.120Z,1003.74
2018-11-28T17:59:55.719Z,1003.76
2018-11-28T18:01:01.350Z,1003.77
2018-11-28T18:02:07.926Z,1003.71
2018-11-28T18:03:14.068Z,1003.71
2018-11-28T18:04:20.145Z,1003.65
2018-11-28T18:05:26.257Z,1003.58
2018-11-28T18:06:31.867Z,1003.55
2018-11-28T18:07:38.584Z,1003.56
2018-11-28T18:08:44.579Z,1003.57
2018-11-28T18:09:50.196Z,1003.59
2018-11-28T18:10:56.343Z,1003.59
2018-11-28T18:12:02.418Z,1003.59
2018-11-28T18:13:08.523Z,1003.55
2018-11-28T18:14:14.632Z,1003.56
2018-11-28T18:15:20.747Z,1003.57
2018-11-28T18:16:29.477Z,1003.62
2018-11-28T18:17:33.462Z,1003.57
2018-11-28T18:18:39.080Z,1003.58
2018-11-28T18:19:45.682Z,1003.54
2018-11-28T18:20:51.289Z,1003.52
2018-11-28T18:21:57.404Z,1003.48
2018-11-28T18:23:03.538Z,1003.47
2018-11-28T18:24:09.626Z,1003.46
2018-11-28T18:25:15.733Z,1003.47
2018-11-28T18:26:21.850Z,1003.45
2018-11-28T18:27:27.960Z,1003.43
2018-11-28T18:28:34.073Z,1003.40
2018-11-28T18:29:40.201Z,1003.40
2018-11-28T18:30:46.795Z,1003.36
2018-11-28T18:31:52.947Z,1003.36
2018-11-28T18:32:58.522Z,1003.35
2018-11-28T18:34:04.639Z,1003.39
2018-11-28T18:35:11.233Z,1003.36
2018-11-28T18:36:16.857Z,1003.37
2018-11-28T18:37:24.361Z,1003.39
2018-11-28T18:38:29.097Z,1003.38
2018-11-28T18:39:35.205Z,1003.37
2018-11-28T18:40:41.383Z,1003.35
2018-11-28T18:41:47.410Z,1003.34
2018-11-28T18:42:53.527Z,1003.36
2018-11-28T18:43:59.652Z,1003.45
2018-11-28T18:45:06.253Z,1003.42
2018-11-28T18:46:11.868Z,1003.47
2018-11-28T18:47:17.996Z,1003.50
2018-11-28T18:48:24.111Z,1003.62
2018-11-28T18:49:30.221Z,1003.68
2018-11-28T18:50:36.364Z,1003.70
2018-11-28T18:51:42.951Z,1003.78
2018-11-28T18:52:48.559Z,1003.77
2018-11-28T18:53:55.171Z,1003.82
2018-11-28T18:55:00.794Z,1003.79
2018-11-28T18:56:06.921Z,1003.85
2018-11-28T18:57:13.003Z,1003.91
2018-11-28T18:58:19.108Z,1003.83
2018-11-28T18:59:25.228Z,1003.86
2018-11-28T19:00:31.325Z,1003.84
2018-11-28T19:01:37.925Z,1003.92
2018-11-28T19:02:43.542Z,1003.83
2018-11-28T19:03:49.650Z,1003.86
2018-11-28T19:04:55.765Z,1003.83
2018-11-28T19:06:01.874Z,1003.81
2018-11-28T19:07:08.577Z,1003.83
2018-11-28T19:08:14.579Z,1003.85
2018-11-28T19:09:20.181Z,1003.78
2018-11-28T19:10:27.027Z,1003.79
2018-11-28T19:11:32.396Z,1003.79
2018-11-28T19:12:39.003Z,1003.75
2018-11-28T19:13:44.601Z,1003.79
2018-11-28T19:14:50.710Z,1003.82
2018-11-28T19:15:56.808Z,1003.79
2018-11-28T19:17:02.911Z,1003.78
2018-11-28T19:18:09.033Z,1003.81
2018-11-28T19:19:15.137Z,1003.78
2018-11-28T19:20:21.246Z,1003.79
2018-11-28T19:21:27.352Z,1003.80
2018-11-28T19:22:33.450Z,1003.85
2018-11-28T19:23:40.044Z,1003.81
2018-11-28T19:24:45.650Z,1003.78
2018-11-28T19:25:51.770Z,1003.72
2018-11-28T19:26:58.360Z,1003.75
2018-11-28T19:28:03.971Z,1003.72
2018-11-28T19:29:10.074Z,1003.73
2018-11-28T19:30:17.184Z,1003.76
2018-11-28T19:31:22.272Z,1003.73
2018-11-28T19:32:28.878Z,1003.75
2018-11-28T19:33:34.603Z,1003.78
2018-11-28T19:35:47.271Z,1003.78
2018-11-28T19:36:52.799Z,1003.77
2018-11-28T19:37:58.898Z,1003.76
2018-11-28T19:39:05.027Z,1003.78
2018-11-28T19:40:11.109Z,1003.79
2018-11-28T19:41:17.200Z,1003.79
2018-11-28T19:42:23.304Z,1003.76
2018-11-28T19:43:29.927Z,1003.75
2018-11-28T19:44:35.509Z,1003.72
2018-11-28T19:45:41.617Z,1003.79
2018-11-28T19:46:47.701Z,1003.75
2018-11-28T19:47:53.797Z,1003.79
2018-11-28T19:48:59.900Z,1003.78
2018-11-28T19:50:05.994Z,1003.81
2018-11-28T19:51:12.603Z,1003.78
2018-11-28T19:52:18.194Z,1003.83
2018-11-28T19:53:24.282Z,1003.78
2018-11-28T19:54:30.880Z,1003.76
2018-11-28T19:55:36.977Z,1003.76
2018-11-28T19:56:42.593Z,1003.82
2018-11-28T19:57:48.671Z,1003.82
2018-11-28T19:58:54.777Z,1003.77
2018-11-28T20:00:00.866Z,1003.85
2018-11-28T20:01:06.972Z,1003.88
2018-11-28T20:02:13.065Z,1003.86
2018-11-28T20:03:19.158Z,1003.89
2018-11-28T20:04:25.257Z,1003.86
2018-11-28T20:05:31.363Z,1003.83
2018-11-28T20:06:37.460Z,1003.90
2018-11-28T20:07:43.561Z,1003.93
2018-11-28T20:08:50.139Z,1003.97
2018-11-28T20:09:55.750Z,1003.97
2018-11-28T20:11:01.845Z,1004.02
2018-11-28T20:12:08.135Z,1003.99
2018-11-28T20:13:14.026Z,1004.07
2018-11-28T20:14:20.119Z,1004.06
2018-11-28T20:15:27.224Z,1004.05
2018-11-28T20:16:32.331Z,1004.08
2018-11-28T20:17:38.420Z,1004.06
2018-11-28T20:18:44.507Z,1004.07
2018-11-28T20:19:50.608Z,1004.04
2018-11-28T20:20:57.207Z,1004.04
2018-11-28T20:22:02.805Z,1004.08
2018-11-28T20:23:08.907Z,1004.03
2018-11-28T20:24:14.993Z,1004.02
2018-11-28T20:25:21.582Z,1004.01
2018-11-28T20:26:27.187Z,1004.09
2018-11-28T20:27:33.279Z,1004.08
2018-11-28T20:28:39.366Z,1004.10
2018-11-28T20:29:45.477Z,1004.07
2018-11-28T20:30:51.553Z,1004.03
2018-11-28T20:31:57.662Z,1004.00
2018-11-28T20:33:03.747Z,1004.02
2018-11-28T20:34:10.328Z,1004.04
2018-11-28T20:35:16.433Z,1003.99
2018-11-28T20:36:22.018Z,1003.99
2018-11-28T20:37:28.619Z,1004.00
2018-11-28T20:38:34.200Z,1004.00
2018-11-28T20:39:40.303Z,1004.02
2018-11-28T20:40:46.889Z,1004.01
2018-11-28T20:41:52.596Z,1004.02
2018-11-28T20:42:58.578Z,1004.07
2018-11-28T20:44:04.661Z,1004.03
2018-11-28T20:45:10.752Z,1004.02
2018-11-28T20:46:16.840Z,1004.02
2018-11-28T20:47:23.137Z,1004.00
2018-11-28T20:48:29.524Z,1004.00
2018-11-28T20:49:35.165Z,1004.00
2018-11-28T20:50:41.208Z,1004.01
2018-11-28T20:51:47.789Z,1003.98
2018-11-28T20:52:55.051Z,1003.94
2018-11-28T20:53:59.476Z,1003.97
2018-11-28T20:55:06.048Z,1004.01
2018-11-28T20:56:11.657Z,1004.01
2018-11-28T20:57:17.781Z,1004.05
2018-11-28T20:58:23.860Z,1003.99
2018-11-28T20:59:29.929Z,1004.03
2018-11-28T21:00:36.011Z,1004.00
2018-11-28T21:01:42.605Z,1003.98
2018-11-28T21:02:48.685Z,1003.99
2018-11-28T21:03:54.295Z,1004.01
2018-11-28T21:05:00.373Z,1003.96
2018-11-28T21:06:06.573Z,1004.01
2018-11-28T21:07:13.068Z,1004.02
2018-11-28T21:08:19.136Z,1003.98
2018-11-28T21:09:25.213Z,1004.01
2018-11-28T21:10:30.814Z,1003.98
2018-11-28T21:11:37.394Z,1004.01
2018-11-28T21:12:43.472Z,1003.98
2018-11-28T21:13:49.081Z,1003.95
2018-11-28T21:14:55.150Z,1003.92
2018-11-28T21:16:01.244Z,1003.96
2018-11-28T21:17:07.335Z,1003.94
2018-11-28T21:18:13.927Z,1004.03
2018-11-28T21:19:19.996Z,1004.01
2018-11-28T21:20:25.590Z,1003.95
2018-11-28T21:21:32.161Z,1003.91
2018-11-28T21:22:38.238Z,1003.88
2018-11-28T21:23:44.341Z,1003.82
2018-11-28T21:24:50.421Z,1003.81
2018-11-28T21:25:56.016Z,1003.88
2018-11-28T21:27:02.095Z,1003.86
2018-11-28T21:28:08.191Z,1003.86
2018-11-28T21:29:14.762Z,1003.95
2018-11-28T21:30:20.342Z,1003.93
2018-11-28T21:31:26.432Z,1003.91
2018-11-28T21:32:32.506Z,1004.00
2018-11-28T21:33:38.652Z,1003.99
2018-11-28T21:34:44.683Z,1004.03
2018-11-28T21:35:51.263Z,1004.05
2018-11-28T21:36:57.351Z,1004.07
2018-11-28T21:38:02.947Z,1004.06
2018-11-28T21:39:09.023Z,1004.12
2018-11-28T21:40:15.095Z,1004.13
2018-11-28T21:41:21.180Z,1004.09
2018-11-28T21:42:27.263Z,1004.15
2018-11-28T21:43:33.344Z,1004.15
2018-11-28T21:44:39.937Z,1004.13
2018-11-28T21:45:45.528Z,1004.08
2018-11-28T21:46:51.598Z,1004.09
2018-11-28T21:47:58.163Z,1004.03
2018-11-28T21:49:03.769Z,1003.98
2018-11-28T21:50:09.837Z,1003.95
2018-11-28T21:54:09.438Z,1003.90
2018-11-28T21:55:15.531Z,1003.87
2018-11-28T21:56:22.127Z,1003.85
2018-11-28T21:57:27.777Z,1003.79
2018-11-28T21:58:33.789Z,1003.83
2018-11-28T21:59:40.326Z,1003.85
2018-11-28T22:00:46.588Z,1003.78
2018-11-28T22:01:51.992Z,1003.80
2018-11-28T22:02:58.061Z,1003.82
2018-11-28T22:04:04.154Z,1003.77
2018-11-28T22:05:10.231Z,1003.79
2018-11-28T22:06:16.298Z,1003.78
2018-11-28T22:07:22.881Z,1003.79
2018-11-28T22:08:28.509Z,1003.76
2018-11-28T22:09:34.544Z,1003.73
2018-11-28T22:10:40.607Z,1003.70
2018-11-28T22:11:46.695Z,1003.65
2018-11-28T22:12:53.301Z,1003.71
2018-11-28T22:13:58.896Z,1003.68
2018-11-28T22:15:04.945Z,1003.63
2018-11-28T22:16:12.011Z,1003.63
2018-11-28T22:17:17.089Z,1003.66
2018-11-28T22:18:23.172Z,1003.65
2018-11-28T22:19:29.763Z,1003.64
2018-11-28T22:20:35.325Z,1003.67
2018-11-28T22:21:41.411Z,1003.68
2018-11-28T22:22:47.482Z,1003.64
2018-11-28T22:23:53.576Z,1003.63
2018-11-28T22:25:00.149Z,1003.63
2018-11-28T22:26:06.200Z,1003.66
2018-11-28T22:27:11.796Z,1003.72
2018-11-28T22:28:17.870Z,1003.76
2018-11-28T22:29:24.441Z,1003.87
2018-11-28T22:30:30.035Z,1003.92
2018-11-28T22:31:36.096Z,1004.03
2018-11-28T22:32:42.170Z,1004.10
2018-11-28T22:33:48.242Z,1004.17
2018-11-28T22:34:54.326Z,1004.22
2018-11-28T22:36:01.402Z,1004.27
2018-11-28T22:37:06.959Z,1004.33
2018-11-28T22:38:12.554Z,1004.27
2018-11-28T22:39:19.131Z,1004.29
2018-11-28T22:40:25.194Z,1004.35
2018-11-28T22:41:31.260Z,1004.36
2018-11-28T22:42:36.854Z,1004.37
2018-11-28T22:43:42.920Z,1004.43
2018-11-28T22:44:48.998Z,1004.43
2018-11-28T22:45:55.078Z,1004.40
2018-11-28T22:47:01.150Z,1004.30
2018-11-28T22:48:07.706Z,1004.28
2018-11-28T22:49:13.289Z,1004.21
2018-11-28T22:50:19.372Z,1004.19
2018-11-28T22:51:25.932Z,1004.17
2018-11-28T22:52:31.516Z,1004.16
2018-11-28T22:53:37.584Z,1004.16
2018-11-28T22:54:43.658Z,1004.11
2018-11-28T22:55:50.229Z,1004.04
2018-11-28T22:56:55.810Z,1004.03
2018-11-28T22:58:01.883Z,1003.98
2018-11-28T22:59:07.955Z,1004.04
2018-11-28T23:00:14.012Z,1004.04
2018-11-28T23:01:20.106Z,1003.99
2018-11-28T23:02:26.168Z,1004.07
2018-11-28T23:03:32.738Z,1004.08
2018-11-28T23:04:38.305Z,1004.03
2018-11-28T23:05:44.387Z,1004.03
2018-11-28T23:06:50.464Z,1004.03
2018-11-28T23:07:56.534Z,1004.00
2018-11-28T23:09:03.090Z,1004.05
2018-11-28T23:10:08.670Z,1004.00
2018-11-28T23:11:14.761Z,1003.99
2018-11-28T23:12:21.783Z,1003.90
2018-11-28T23:13:26.899Z,1003.91
2018-11-28T23:14:32.960Z,1003.91
2018-11-28T23:15:39.584Z,1003.90
2018-11-28T23:16:45.111Z,1003.93
2018-11-28T23:17:55.003Z,1003.95
2018-11-28T23:18:57.745Z,1003.98
2018-11-28T23:20:03.346Z,1003.94
2018-11-28T23:21:09.405Z,1003.88
2018-11-28T23:22:15.592Z,1003.94
2018-11-28T23:23:21.540Z,1003.89
2018-11-28T23:24:27.611Z,1003.84
2018-11-28T23:25:33.694Z,1003.78
2018-11-28T23:26:39.768Z,1003.78
2018-11-28T23:27:46.325Z,1003.85
2018-11-28T23:28:51.898Z,1003.89
2018-11-28T23:29:57.983Z,1003.90
2018-11-28T23:31:04.735Z,1003.88
2018-11-28T23:32:11.117Z,1003.89
2018-11-28T23:33:16.382Z,1003.87
2018-11-28T23:34:22.748Z,1003.88
2018-11-28T23:35:28.824Z,1003.87
2018-11-28T23:36:34.416Z,1003.85
2018-11-28T23:37:40.972Z,1003.83
2018-11-28T23:38:47.034Z,1003.87
2018-11-28T23:39:52.625Z,1003.91
2018-11-28T23:40:59.198Z,1003.92
2018-11-28T23:42:04.767Z,1003.94
2018-11-28T23:43:10.832Z,1003.86
2018-11-28T23:44:17.391Z,1003.83
2018-11-28T23:45:22.972Z,1003.81
2018-11-28T23:46:29.057Z,1003.77
2018-11-28T23:47:35.118Z,1003.77
2018-11-28T23:48:41.179Z,1003.76
2018-11-28T23:49:47.261Z,1003.77
2018-11-28T23:50:53.812Z,1003.79
2018-11-28T23:51:59.414Z,1003.77
2018-11-28T23:53:05.968Z,1003.79
2018-11-28T23:54:11.549Z,1003.79
2018-11-28T23:55:18.098Z,1003.76
2018-11-28T23:56:23.680Z,1003.72
2018-11-28T23:57:29.771Z,1003.76
2018-11-28T23:58:35.821Z,1003.77
2018-11-28T23:59:41.889Z,1003.74
